Time;durP1;ratioP1;P1;durP2;ratioP2;P2;SDS_P1;SDS_P2;PMS_P1;PMS_P2;Temp;Humidity;BMP_temperature;BMP_pressure;BME280_temperature;BME280_humidity;BME280_pressure;Samples;Min_cycle;Max_cycle;Signal;HPM_P1;HPM_P2
2023/12/26 00:00:33;;;;;;;1.23;0.60;;;;;;;10.68;100.00;97648.34;2574129;28;20038;-94
2023/12/26 00:01:49;;;;;;;0.77;0.45;;;;;;;10.62;100.00;97638.13;2562303;28;20043;-93
2023/12/26 00:03:06;;;;;;;0.40;0.40;;;;;;;10.63;100.00;97642.44;2561906;28;20084;-93
2023/12/26 00:04:23;;;;;;;0.60;0.60;;;;;;;10.70;100.00;97638.69;2567466;28;20146;-93
2023/12/26 00:05:40;;;;;;;1.90;1.13;;;;;;;10.68;100.00;97637.88;2566678;28;20512;-93
2023/12/26 00:06:56;;;;;;;3.30;1.00;;;;;;;10.67;100.00;97640.56;2581459;28;20064;-94
2023/12/26 00:08:11;;;;;;;1.30;0.60;;;;;;;10.60;100.00;97632.94;2569817;28;20082;-93
2023/12/26 00:09:27;;;;;;;1.58;0.50;;;;;;;10.64;100.00;97643.31;2560901;28;20043;-93
2023/12/26 00:10:43;;;;;;;2.83;0.80;;;;;;;10.77;100.00;97639.28;2559111;28;20043;-94
2023/12/26 00:11:59;;;;;;;1.05;0.60;;;;;;;10.84;100.00;97640.72;2559726;28;20057;-94
2023/12/26 00:13:15;;;;;;;1.05;0.95;;;;;;;10.76;100.00;97634.97;2567183;28;20051;-93
2023/12/26 00:14:31;;;;;;;0.63;0.63;;;;;;;10.69;100.00;97641.34;2572067;28;20101;-93
2023/12/26 00:15:47;;;;;;;0.95;0.73;;;;;;;10.55;100.00;97634.91;2569692;28;20022;-94
2023/12/26 00:17:03;;;;;;;0.40;0.40;;;;;;;10.67;100.00;97630.94;2566279;28;20047;-94
2023/12/26 00:18:19;;;;;;;0.50;0.50;;;;;;;10.74;100.00;97631.53;2568511;28;20090;-93
2023/12/26 00:19:36;;;;;;;0.70;0.60;;;;;;;10.83;100.00;97631.16;2566540;28;20479;-94
2023/12/26 00:20:53;;;;;;;1.30;0.60;;;;;;;10.79;100.00;97632.22;2564977;28;20126;-93
2023/12/26 00:22:09;;;;;;;0.75;0.40;;;;;;;10.94;100.00;97627.22;2575939;28;20468;-96
2023/12/26 00:23:25;;;;;;;0.75;0.75;;;;;;;10.70;100.00;97624.72;2564159;28;20039;-94
2023/12/26 00:24:41;;;;;;;0.40;0.40;;;;;;;10.68;100.00;97626.56;2561223;28;20042;-94
2023/12/26 00:25:58;;;;;;;0.55;0.55;;;;;;;10.81;100.00;97633.00;2588039;28;20060;-94
2023/12/26 00:27:14;;;;;;;0.52;0.47;;;;;;;10.82;100.00;97631.22;2572973;28;20134;-95
2023/12/26 00:28:30;;;;;;;0.80;0.60;;;;;;;10.73;100.00;97629.81;2559724;28;20047;-95
2023/12/26 00:29:46;;;;;;;0.75;0.40;;;;;;;10.73;100.00;97627.22;2550838;28;20042;-94
2023/12/26 00:31:02;;;;;;;0.40;0.40;;;;;;;10.80;100.00;97633.91;2551758;28;20043;-95
2023/12/26 00:32:18;;;;;;;1.85;0.60;;;;;;;10.78;100.00;97627.03;2556004;28;20142;-96
2023/12/26 00:33:34;;;;;;;0.88;0.40;;;;;;;10.71;100.00;97636.91;2556755;28;20071;-96
2023/12/26 00:34:50;;;;;;;0.68;0.50;;;;;;;10.71;100.00;97632.53;2557597;28;20094;-95
2023/12/26 00:36:11;;;;;;;0.93;0.60;;;;;;;10.90;100.00;97636.16;2562445;28;20043;-95
2023/12/26 00:37:29;;;;;;;1.55;0.60;;;;;;;10.84;100.00;97638.09;2558315;28;20043;-94
2023/12/26 00:38:47;;;;;;;0.65;0.50;;;;;;;10.70;100.00;97624.72;2561017;28;20256;-94
2023/12/26 00:40:03;;;;;;;0.30;0.30;;;;;;;10.65;100.00;97624.91;2576502;28;20038;-95
2023/12/26 00:41:19;;;;;;;0.30;0.30;;;;;;;10.62;100.00;97616.38;2573493;28;20512;-95
2023/12/26 00:42:35;;;;;;;0.40;0.30;;;;;;;10.86;100.00;97619.72;2573606;28;20116;-95
2023/12/26 00:43:51;;;;;;;1.25;0.50;;;;;;;10.84;100.00;97617.16;2557501;28;20097;-96
2023/12/26 00:45:08;;;;;;;0.43;0.43;;;;;;;10.87;100.00;97619.63;2564897;28;20114;-96
2023/12/26 00:46:24;;;;;;;0.57;0.57;;;;;;;10.74;100.00;97621.06;2568837;28;20046;-95
2023/12/26 00:47:40;;;;;;;0.57;0.50;;;;;;;10.67;100.00;97622.25;2559835;28;20174;-95
2023/12/26 00:48:56;;;;;;;0.73;0.60;;;;;;;11.00;100.00;97613.88;2582616;28;20049;-95
2023/12/26 00:50:13;;;;;;;0.65;0.40;;;;;;;10.81;100.00;97619.91;2582196;28;20054;-94
2023/12/26 00:51:30;;;;;;;0.43;0.30;;;;;;;10.92;100.00;97622.06;2567882;28;20951;-95
2023/12/26 00:52:46;;;;;;;0.40;0.40;;;;;;;10.74;100.00;97608.84;2568994;28;20054;-96
2023/12/26 00:54:02;;;;;;;0.90;0.60;;;;;;;10.79;100.00;97613.00;2565189;28;20050;-94
2023/12/26 00:55:18;;;;;;;0.77;0.50;;;;;;;10.91;100.00;97616.91;2570014;28;20047;-94
2023/12/26 00:56:34;;;;;;;0.52;0.30;;;;;;;10.77;100.00;97622.69;2568083;28;20544;-95
2023/12/26 00:57:50;;;;;;;0.60;0.40;;;;;;;10.70;100.00;97622.09;2573479;28;20050;-94
2023/12/26 00:59:06;;;;;;;0.50;0.43;;;;;;;10.86;100.00;97630.19;2557776;28;20047;-95
2023/12/26 01:00:22;;;;;;;0.73;0.60;;;;;;;10.96;100.00;97626.22;2553539;28;20046;-96
2023/12/26 01:01:38;;;;;;;0.30;0.30;;;;;;;10.83;100.00;97628.53;2562071;28;20603;-96
2023/12/26 01:02:54;;;;;;;0.30;0.30;;;;;;;10.70;100.00;97624.72;2565705;28;20075;-94
2023/12/26 01:04:11;;;;;;;0.82;0.50;;;;;;;10.63;100.00;97624.13;2563000;28;20049;-95
2023/12/26 01:05:27;;;;;;;0.50;0.28;;;;;;;10.65;100.00;97622.28;2560506;28;20043;-95
2023/12/26 01:06:43;;;;;;;0.60;0.60;;;;;;;10.88;100.00;97621.31;2562095;28;20344;-95
2023/12/26 01:07:59;;;;;;;0.60;0.40;;;;;;;10.83;100.00;97620.69;2565936;28;20122;-94
2023/12/26 01:09:15;;;;;;;0.50;0.40;;;;;;;10.87;100.00;97613.56;2571935;28;20443;-94
2023/12/26 01:10:31;;;;;;;0.55;0.40;;;;;;;10.76;100.00;97614.00;2565292;28;20047;-95
2023/12/26 01:11:47;;;;;;;0.40;0.40;;;;;;;10.76;100.00;97611.41;2551672;28;20565;-93
2023/12/26 01:13:03;;;;;;;0.38;0.38;;;;;;;10.76;100.00;97615.78;2572487;28;20074;-95
2023/12/26 01:14:19;;;;;;;0.45;0.32;;;;;;;10.79;100.00;97611.25;2575273;28;20053;-96
2023/12/26 01:15:36;;;;;;;0.60;0.40;;;;;;;10.96;100.00;97621.00;2567611;28;20034;-94
2023/12/26 01:16:52;;;;;;;0.98;0.47;;;;;;;10.73;100.00;97611.50;2558833;28;20145;-95
2023/12/26 01:18:08;;;;;;;0.40;0.40;;;;;;;10.70;100.00;97609.88;2552802;28;20047;-95
2023/12/26 01:19:24;;;;;;;0.50;0.50;;;;;;;10.64;100.00;97609.28;2558402;28;20070;-94
2023/12/26 01:20:40;;;;;;;1.85;0.60;;;;;;;10.97;100.00;97607.00;2565216;28;20054;-94
2023/12/26 01:21:56;;;;;;;0.73;0.50;;;;;;;10.67;100.00;97603.91;2564878;28;20482;-95
2023/12/26 01:23:12;;;;;;;0.40;0.40;;;;;;;10.76;100.00;97614.00;2568898;28;20030;-93
2023/12/26 01:24:28;;;;;;;0.70;0.52;;;;;;;10.65;100.00;97613.59;2569739;28;20034;-94
2023/12/26 01:25:44;;;;;;;0.50;0.50;;;;;;;10.59;100.00;97609.47;2568464;28;20083;-95
2023/12/26 01:27:00;;;;;;;0.93;0.52;;;;;;;10.86;100.00;97611.84;2570105;28;20357;-95
2023/12/26 01:28:16;;;;;;;0.50;0.38;;;;;;;10.78;100.00;97608.69;2564041;28;20054;-94
2023/12/26 01:29:32;;;;;;;0.85;0.70;;;;;;;10.50;100.00;97602.00;2553607;28;20514;-95
2023/12/26 01:30:48;;;;;;;0.40;0.40;;;;;;;10.71;100.00;97618.56;2562173;28;20039;-95
2023/12/26 01:32:04;;;;;;;0.45;0.40;;;;;;;10.78;100.00;97619.16;2564627;28;20533;-95
2023/12/26 01:33:20;;;;;;;3.63;0.65;;;;;;;10.73;100.00;97622.84;2567385;28;20035;-94
2023/12/26 01:34:36;;;;;;;0.68;0.50;;;;;;;10.67;100.00;97617.84;2571954;28;20062;-93
2023/12/26 01:35:52;;;;;;;2.08;0.73;;;;;;;10.51;100.00;97612.41;2567944;28;20514;-95
2023/12/26 01:37:08;;;;;;;2.47;0.77;;;;;;;10.84;100.00;97614.53;2567994;28;20063;-95
2023/12/26 01:38:24;;;;;;;0.70;0.43;;;;;;;10.63;100.00;97618.06;2567560;28;20042;-94
2023/12/26 01:39:40;;;;;;;0.52;0.40;;;;;;;10.86;100.00;97615.31;2569674;28;20075;-95
2023/12/26 01:40:56;;;;;;;0.40;0.40;;;;;;;10.81;100.00;97619.91;2568223;28;20062;-94
2023/12/26 01:42:13;;;;;;;0.57;0.47;;;;;;;10.72;100.00;97615.03;2575128;28;20907;-95
2023/12/26 01:43:29;;;;;;;1.13;0.50;;;;;;;10.82;100.00;97611.13;2577083;28;20068;-94
2023/12/26 01:44:46;;;;;;;0.50;0.50;;;;;;;10.96;100.00;97620.16;2563996;28;20419;-95
2023/12/26 01:46:03;;;;;;;0.30;0.30;;;;;;;10.85;100.00;97618.00;2558375;28;20051;-94
2023/12/26 01:47:19;;;;;;;1.08;0.50;;;;;;;10.91;100.00;97603.81;2564134;28;20387;-95
2023/12/26 01:48:36;;;;;;;0.40;0.40;;;;;;;10.93;100.00;97604.59;2567844;28;20054;-94
2023/12/26 01:49:52;;;;;;;1.05;0.80;;;;;;;10.62;100.00;97592.81;2568830;28;20139;-95
2023/12/26 01:51:11;;;;;;;0.80;0.43;;;;;;;10.70;100.00;97598.56;2569351;28;20092;-93
2023/12/26 01:52:28;;;;;;;1.33;0.70;;;;;;;10.94;100.00;97601.88;2563150;28;20118;-94
2023/12/26 01:53:44;;;;;;;0.93;0.52;;;;;;;10.82;100.00;97594.53;2555501;28;20530;-94
2023/12/26 01:55:00;;;;;;;0.50;0.28;;;;;;;10.68;100.00;97592.53;2572173;28;20504;-94
2023/12/26 01:56:16;;;;;;;0.60;0.60;;;;;;;10.87;100.00;97585.59;2574966;28;20121;-95
2023/12/26 01:57:34;;;;;;;1.33;0.60;;;;;;;10.96;100.00;97579.09;2567512;28;20050;-93
2023/12/26 01:58:50;;;;;;;0.60;0.50;;;;;;;10.81;100.00;97585.00;2568149;28;20127;-95
2023/12/26 02:00:07;;;;;;;0.52;0.50;;;;;;;10.78;100.00;97590.38;2558478;28;20218;-94
2023/12/26 02:01:23;;;;;;;0.68;0.60;;;;;;;10.99;100.00;97596.44;2564168;28;20042;-95
2023/12/26 02:02:41;;;;;;;0.50;0.47;;;;;;;10.91;100.00;97585.47;2557815;28;20054;-94
2023/12/26 02:03:59;;;;;;;0.68;0.47;;;;;;;10.77;100.00;97586.91;2575366;28;20045;-93
2023/12/26 02:05:15;;;;;;;0.55;0.55;;;;;;;10.87;100.00;97588.19;2570055;28;20507;-95
2023/12/26 02:06:35;;;;;;;0.90;0.60;;;;;;;10.93;100.00;97583.63;2573439;28;20129;-94
2023/12/26 02:07:53;;;;;;;0.57;0.50;;;;;;;10.94;100.00;97580.09;2583882;28;20107;-95
2023/12/26 02:09:10;;;;;;;0.98;0.63;;;;;;;11.00;100.00;97580.69;2565129;28;20043;-95
2023/12/26 02:10:27;;;;;;;1.52;0.50;;;;;;;10.96;100.00;97580.88;2562404;28;20553;-95
2023/12/26 02:11:43;;;;;;;0.95;0.60;;;;;;;10.87;100.00;97579.50;2578225;28;20051;-95
2023/12/26 02:12:59;;;;;;;0.50;0.50;;;;;;;10.72;100.00;97574.00;2574190;28;20046;-95
2023/12/26 02:14:15;;;;;;;0.40;0.40;;;;;;;10.91;100.00;97575.00;2573078;28;20046;-94
2023/12/26 02:15:31;;;;;;;1.27;0.60;;;;;;;10.95;100.00;97580.00;2578952;28;20046;-95
2023/12/26 02:16:47;;;;;;;0.70;0.50;;;;;;;10.96;100.00;97575.63;2561031;28;20039;-94
2023/12/26 02:18:04;;;;;;;0.70;0.68;;;;;;;11.06;100.00;97569.09;2567905;28;20044;-95
2023/12/26 02:19:20;;;;;;;1.27;0.82;;;;;;;10.93;100.00;97578.41;2562350;28;20047;-93
2023/12/26 02:20:36;;;;;;;2.58;1.30;;;;;;;10.68;100.00;97577.66;2558656;28;20054;-95
2023/12/26 02:21:52;;;;;;;2.03;0.90;;;;;;;11.01;100.00;97571.03;2562109;28;20038;-95
2023/12/26 02:23:08;;;;;;;0.80;0.68;;;;;;;10.80;100.00;97568.44;2567273;28;20758;-95
2023/12/26 02:24:24;;;;;;;0.80;0.60;;;;;;;10.60;100.00;97564.91;2558457;28;20043;-95
2023/12/26 02:25:40;;;;;;;1.23;0.70;;;;;;;10.83;100.00;97565.69;2551643;28;20038;-95
2023/12/26 02:26:56;;;;;;;1.02;0.50;;;;;;;10.82;100.00;97570.97;2561140;28;20517;-95
2023/12/26 02:28:12;;;;;;;0.95;0.80;;;;;;;10.97;100.00;97575.59;2558236;28;20043;-94
2023/12/26 02:29:30;;;;;;;0.80;0.60;;;;;;;10.96;100.00;97568.63;2557705;28;20043;-95
2023/12/26 02:30:49;;;;;;;0.60;0.60;;;;;;;10.74;100.00;97566.94;2566894;28;20539;-95
2023/12/26 02:32:06;;;;;;;0.90;0.75;;;;;;;10.65;100.00;97566.50;2569038;28;20077;-94
2023/12/26 02:33:22;;;;;;;1.13;0.70;;;;;;;10.84;100.00;97567.38;2567246;28;20050;-94
2023/12/26 02:34:38;;;;;;;2.30;0.60;;;;;;;10.88;100.00;97558.47;2563626;28;20047;-92
2023/12/26 02:35:55;;;;;;;0.60;0.50;;;;;;;10.79;100.00;97564.13;2560030;28;20127;-95
2023/12/26 02:37:11;;;;;;;0.68;0.68;;;;;;;10.84;100.00;97563.94;2557279;28;20582;-95
2023/12/26 02:38:27;;;;;;;0.80;0.80;;;;;;;10.84;100.00;97561.31;2551931;28;20419;-94
2023/12/26 02:39:43;;;;;;;1.30;0.70;;;;;;;11.14;100.00;97558.25;2550676;28;20042;-95
2023/12/26 02:40:59;;;;;;;1.08;0.60;;;;;;;10.81;100.00;97564.91;2552147;28;20141;-94
2023/12/26 02:42:17;;;;;;;0.63;0.55;;;;;;;10.65;100.00;97563.88;2560953;28;20105;-93
2023/12/26 02:43:33;;;;;;;1.27;0.85;;;;;;;10.70;100.00;97561.91;2558132;28;20077;-95
2023/12/26 02:44:49;;;;;;;1.75;0.80;;;;;;;10.97;100.00;97557.25;2572101;28;20072;-93
2023/12/26 02:46:05;;;;;;;0.50;0.50;;;;;;;10.73;100.00;97562.63;2565197;28;20043;-95
2023/12/26 02:47:21;;;;;;;0.70;0.65;;;;;;;10.87;100.00;97562.00;2552231;28;20042;-94
2023/12/26 02:48:37;;;;;;;0.57;0.55;;;;;;;10.83;100.00;97557.84;2571769;28;20807;-95
2023/12/26 02:49:53;;;;;;;0.90;0.75;;;;;;;10.78;100.00;97551.09;2562369;28;20082;-94
2023/12/26 02:51:09;;;;;;;2.03;1.05;;;;;;;10.69;100.00;97550.59;2567695;28;20433;-94
2023/12/26 02:52:24;;;;;;;2.67;0.95;;;;;;;10.85;100.00;97555.16;2560253;28;20047;-94
2023/12/26 02:53:40;;;;;;;0.60;0.60;;;;;;;10.70;100.00;97552.28;2558963;28;20427;-94
2023/12/26 02:54:56;;;;;;;0.60;0.60;;;;;;;10.50;100.00;97555.75;2573632;28;20046;-94
2023/12/26 02:56:12;;;;;;;1.05;0.70;;;;;;;10.68;100.00;97553.25;2574027;28;20046;-94
2023/12/26 02:57:28;;;;;;;0.80;0.60;;;;;;;10.63;100.00;97550.00;2568090;28;20447;-93
2023/12/26 02:58:44;;;;;;;1.00;0.70;;;;;;;10.76;100.00;97555.56;2568825;28;20070;-94
2023/12/26 03:00:00;;;;;;;1.95;0.80;;;;;;;10.87;100.00;97553.31;2566662;28;20401;-94
2023/12/26 03:01:16;;;;;;;1.73;0.70;;;;;;;10.91;100.00;97554.03;2568977;28;20257;-95
2023/12/26 03:02:34;;;;;;;1.40;0.70;;;;;;;10.84;100.00;97546.44;2562286;28;20136;-95
2023/12/26 03:03:50;;;;;;;3.95;0.82;;;;;;;10.82;100.00;97543.03;2558435;28;20102;-94
2023/12/26 03:05:06;;;;;;;0.98;0.77;;;;;;;10.86;100.00;97543.78;2559263;28;20086;-94
2023/12/26 03:06:23;;;;;;;1.33;0.70;;;;;;;10.84;100.00;97538.59;2568389;28;20049;-95
2023/12/26 03:07:39;;;;;;;0.60;0.60;;;;;;;10.77;100.00;97554.63;2564740;28;20055;-94
2023/12/26 03:08:55;;;;;;;2.15;0.63;;;;;;;10.54;100.00;97541.63;2552593;28;20138;-95
2023/12/26 03:10:11;;;;;;;0.60;0.60;;;;;;;10.43;100.00;97539.47;2565478;28;20034;-95
2023/12/26 03:11:27;;;;;;;0.68;0.47;;;;;;;10.51;100.00;97533.91;2569311;28;20047;-95
2023/12/26 03:12:43;;;;;;;0.65;0.52;;;;;;;10.63;100.00;97531.69;2551174;28;20047;-95
2023/12/26 03:14:00;;;;;;;1.30;0.90;;;;;;;10.80;100.00;97526.56;2560417;28;20050;-93
2023/12/26 03:15:16;;;;;;;1.30;0.90;;;;;;;10.96;100.00;97526.72;2579799;28;20041;-94
2023/12/26 03:16:32;;;;;;;1.15;0.82;;;;;;;10.87;100.00;97527.13;2558250;29;20102;-95
2023/12/26 03:17:48;;;;;;;0.63;0.63;;;;;;;10.52;100.00;97517.28;2548245;28;20074;-94
2023/12/26 03:19:04;;;;;;;6.75;0.80;;;;;;;10.37;100.00;97515.28;2558254;28;20100;-95
2023/12/26 03:20:20;;;;;;;1.38;0.60;;;;;;;10.51;100.00;97519.94;2552988;28;20043;-94
2023/12/26 03:21:36;;;;;;;0.57;0.40;;;;;;;10.68;100.00;97527.09;2567931;28;20479;-93
2023/12/26 03:22:52;;;;;;;0.65;0.50;;;;;;;10.62;100.00;97522.97;2564043;28;20039;-94
2023/12/26 03:24:07;;;;;;;0.63;0.63;;;;;;;10.65;100.00;97524.59;2561625;28;20882;-94
2023/12/26 03:25:23;;;;;;;0.60;0.60;;;;;;;10.59;100.00;97516.09;2563629;28;20047;-95
2023/12/26 03:26:40;;;;;;;0.50;0.50;;;;;;;10.65;100.00;97522.00;2561373;28;20097;-93
2023/12/26 03:27:56;;;;;;;0.57;0.55;;;;;;;10.64;100.00;97523.75;2564592;28;20042;-95
2023/12/26 03:29:12;;;;;;;0.82;0.82;;;;;;;10.54;100.00;97517.19;2573476;28;20077;-94
2023/12/26 03:30:29;;;;;;;0.80;0.60;;;;;;;10.61;100.00;97526.50;2573438;28;20138;-95
2023/12/26 03:31:45;;;;;;;0.60;0.60;;;;;;;10.51;100.00;97523.44;2574118;28;20026;-95
2023/12/26 03:33:01;;;;;;;0.47;0.47;;;;;;;10.55;100.00;97521.53;2578636;28;20128;-94
2023/12/26 03:34:17;;;;;;;0.63;0.60;;;;;;;10.44;100.00;97515.00;2572493;28;20120;-92
2023/12/26 03:35:33;;;;;;;0.80;0.60;;;;;;;10.40;100.00;97521.22;2559888;28;20479;-95
2023/12/26 03:36:50;;;;;;;1.05;0.80;;;;;;;10.60;100.00;97514.31;2552749;28;20042;-94
2023/12/26 03:38:06;;;;;;;2.63;0.75;;;;;;;10.38;100.00;97516.97;2555110;28;20098;-95
2023/12/26 03:39:22;;;;;;;0.77;0.50;;;;;;;10.45;100.00;97511.44;2555079;28;20043;-94
2023/12/26 03:40:38;;;;;;;0.45;0.45;;;;;;;10.49;100.00;97522.66;2559138;28;20059;-94
2023/12/26 03:41:54;;;;;;;0.40;0.40;;;;;;;10.44;100.00;97524.59;2559682;28;20034;-94
2023/12/26 03:43:10;;;;;;;0.70;0.60;;;;;;;10.59;100.00;97523.09;2571496;28;20053;-94
2023/12/26 03:44:26;;;;;;;0.70;0.68;;;;;;;10.56;100.00;97529.31;2565916;28;20054;-94
2023/12/26 03:45:45;;;;;;;1.88;0.68;;;;;;;10.31;100.00;97506.75;2568546;28;20489;-94
2023/12/26 03:47:01;;;;;;;0.88;0.82;;;;;;;10.30;100.00;97525.16;2577461;28;20085;-95
2023/12/26 03:48:17;;;;;;;0.40;0.40;;;;;;;10.45;100.00;97524.53;2564210;28;20082;-92
2023/12/26 03:49:33;;;;;;;0.50;0.50;;;;;;;10.44;100.00;97522.84;2562221;28;20047;-94
2023/12/26 03:50:48;;;;;;;0.50;0.50;;;;;;;10.52;100.00;97522.50;2558246;28;20110;-94
2023/12/26 03:52:05;;;;;;;1.13;0.77;;;;;;;10.51;100.00;97526.03;2572428;28;20482;-95
2023/12/26 03:53:21;;;;;;;0.68;0.63;;;;;;;10.35;100.00;97519.72;2573866;28;20023;-94
2023/12/26 03:54:36;;;;;;;1.33;0.80;;;;;;;10.48;100.00;97528.81;2578289;28;20046;-93
2023/12/26 03:55:52;;;;;;;0.73;0.63;;;;;;;10.38;100.00;97523.06;2575647;28;20473;-94
2023/12/26 03:57:08;;;;;;;0.50;0.50;;;;;;;10.26;100.00;97529.66;2570939;28;20054;-95
2023/12/26 03:58:24;;;;;;;1.50;0.65;;;;;;;10.43;100.00;97536.84;2561917;28;20043;-94
2023/12/26 03:59:40;;;;;;;0.80;0.35;;;;;;;10.37;100.00;97528.38;2562789;28;20067;-94
2023/12/26 04:00:56;;;;;;;1.42;0.68;;;;;;;10.32;100.00;97523.31;2573558;28;20043;-93
2023/12/26 04:02:12;;;;;;;1.38;0.93;;;;;;;10.21;100.00;97528.13;2569034;28;20310;-94
2023/12/26 04:03:28;;;;;;;0.60;0.60;;;;;;;10.30;100.00;97527.78;2559723;28;20047;-94
2023/12/26 04:04:45;;;;;;;0.95;0.68;;;;;;;10.32;100.00;97532.00;2556080;28;20043;-94
2023/12/26 04:06:01;;;;;;;0.65;0.60;;;;;;;10.32;100.00;97531.16;2556786;28;20101;-94
2023/12/26 04:07:17;;;;;;;0.98;0.80;;;;;;;10.30;100.00;97533.84;2565357;28;20158;-94
2023/12/26 04:08:32;;;;;;;0.82;0.70;;;;;;;10.26;100.00;97545.34;2562096;28;20106;-94
2023/12/26 04:09:48;;;;;;;0.47;0.40;;;;;;;10.27;100.00;97531.34;2553671;28;20495;-95
2023/12/26 04:11:04;;;;;;;0.75;0.73;;;;;;;10.32;100.00;97534.63;2570357;28;20045;-95
2023/12/26 04:12:20;;;;;;;1.33;0.73;;;;;;;10.39;100.00;97529.16;2574346;28;20050;-95
2023/12/26 04:13:37;;;;;;;0.80;0.80;;;;;;;10.15;100.00;97524.88;2566167;28;20081;-94
2023/12/26 04:14:53;;;;;;;0.82;0.52;;;;;;;10.26;100.00;97526.19;2559099;28;20027;-95
2023/12/26 04:16:09;;;;;;;0.68;0.60;;;;;;;10.26;100.00;97526.19;2551075;28;20043;-96
2023/12/26 04:17:25;;;;;;;1.33;0.80;;;;;;;10.48;100.00;97534.03;2552358;28;20486;-93
2023/12/26 04:18:40;;;;;;;0.90;0.77;;;;;;;10.24;100.00;97531.50;2567597;28;20613;-94
2023/12/26 04:19:56;;;;;;;1.75;0.80;;;;;;;10.37;100.00;97523.97;2576483;28;20047;-94
2023/12/26 04:21:12;;;;;;;0.65;0.50;;;;;;;10.27;100.00;97520.88;2568281;28;20043;-95
2023/12/26 04:22:28;;;;;;;0.50;0.47;;;;;;;10.30;100.00;97530.38;2566148;28;20038;-92
2023/12/26 04:23:44;;;;;;;0.93;0.82;;;;;;;10.31;100.00;97519.00;2552156;28;20648;-94
2023/12/26 04:25:00;;;;;;;1.55;0.80;;;;;;;10.17;100.00;97516.94;2558047;28;20042;-94
2023/12/26 04:26:16;;;;;;;0.63;0.60;;;;;;;10.30;100.00;97518.13;2556961;28;20051;-95
2023/12/26 04:27:32;;;;;;;4.18;0.82;;;;;;;10.14;100.00;97506.63;2554385;28;20043;-95
2023/12/26 04:28:48;;;;;;;2.88;0.75;;;;;;;10.24;100.00;97526.25;2560888;28;20050;-95
2023/12/26 04:30:06;;;;;;;1.63;0.90;;;;;;;10.17;100.00;97516.94;2564487;28;20043;-94
2023/12/26 04:31:22;;;;;;;0.40;0.40;;;;;;;10.18;100.00;97527.34;2559035;28;20530;-93
2023/12/26 04:32:38;;;;;;;0.98;0.75;;;;;;;10.24;100.00;97520.16;2575154;28;20097;-95
2023/12/26 04:33:54;;;;;;;0.50;0.45;;;;;;;10.07;100.00;97521.72;2575808;28;20117;-94
2023/12/26 04:35:10;;;;;;;1.48;0.68;;;;;;;10.25;100.00;97522.72;2565694;28;20043;-95
2023/12/26 04:36:26;;;;;;;0.68;0.50;;;;;;;10.20;100.00;97527.31;2563616;28;20027;-94
2023/12/26 04:37:42;;;;;;;0.40;0.40;;;;;;;10.22;100.00;97527.22;2569256;28;20043;-94
2023/12/26 04:38:58;;;;;;;1.65;0.70;;;;;;;10.30;100.00;97527.78;2576067;28;20140;-95
2023/12/26 04:40:14;;;;;;;1.67;0.88;;;;;;;10.36;100.00;97524.06;2578143;28;20062;-94
2023/12/26 04:41:31;;;;;;;0.60;0.50;;;;;;;10.11;100.00;97527.66;2575483;28;20150;-94
2023/12/26 04:42:47;;;;;;;1.35;0.80;;;;;;;10.30;100.00;97517.31;2569292;28;20051;-94
2023/12/26 04:44:03;;;;;;;0.70;0.70;;;;;;;10.06;100.00;97512.16;2559294;28;20054;-93
2023/12/26 04:45:19;;;;;;;0.70;0.60;;;;;;;10.10;100.00;97525.97;2562620;28;20051;-95
2023/12/26 04:46:35;;;;;;;0.70;0.60;;;;;;;10.18;100.00;97519.50;2568759;28;20687;-95
2023/12/26 04:47:51;;;;;;;0.68;0.40;;;;;;;10.17;100.00;97516.94;2558417;28;20055;-94
2023/12/26 04:49:07;;;;;;;2.42;1.65;;;;;;;10.30;100.00;97520.75;2554240;28;20023;-95
2023/12/26 04:50:23;;;;;;;0.65;0.65;;;;;;;10.14;100.00;97510.09;2556677;28;20058;-96
2023/12/26 04:51:39;;;;;;;0.98;0.75;;;;;;;10.07;100.00;97516.47;2569930;28;20053;-94
2023/12/26 04:52:55;;;;;;;2.05;1.10;;;;;;;10.04;100.00;97517.44;2569301;28;20082;-94
2023/12/26 04:54:11;;;;;;;1.13;0.57;;;;;;;10.06;100.00;97520.00;2568697;28;20047;-94
2023/12/26 04:55:27;;;;;;;0.50;0.50;;;;;;;10.13;100.00;97520.59;2569029;28;20059;-93
2023/12/26 04:56:43;;;;;;;0.50;0.50;;;;;;;10.15;100.00;97518.78;2569072;28;20046;-94
2023/12/26 04:57:59;;;;;;;1.17;0.70;;;;;;;10.21;100.00;97517.69;2564212;28;20035;-94
2023/12/26 04:59:15;;;;;;;0.65;0.60;;;;;;;10.10;100.00;97525.97;2573047;28;20038;-94
2023/12/26 05:00:31;;;;;;;1.08;0.77;;;;;;;10.11;100.00;97520.66;2572054;28;20047;-94
2023/12/26 05:01:47;;;;;;;1.80;0.63;;;;;;;9.98;100.00;97525.56;2551973;28;20054;-95
2023/12/26 05:03:03;;;;;;;3.95;0.80;;;;;;;10.07;100.00;97519.09;2553633;28;20075;-93
2023/12/26 05:04:19;;;;;;;0.63;0.63;;;;;;;10.12;100.00;97530.22;2571932;28;20586;-96
2023/12/26 05:05:35;;;;;;;0.70;0.63;;;;;;;9.90;100.00;97530.22;2565674;28;20047;-94
2023/12/26 05:06:51;;;;;;;0.73;0.52;;;;;;;10.03;100.00;97530.59;2552053;28;20483;-95
2023/12/26 05:08:07;;;;;;;0.93;0.70;;;;;;;10.22;100.00;97540.31;2553823;28;20055;-94
2023/12/26 05:09:23;;;;;;;0.98;0.52;;;;;;;10.04;100.00;97538.38;2563130;28;20069;-93
2023/12/26 05:10:39;;;;;;;0.65;0.50;;;;;;;9.97;100.00;97547.38;2558890;28;20063;-94
2023/12/26 05:11:55;;;;;;;1.00;0.75;;;;;;;10.03;100.00;97541.91;2551929;28;20043;-94
2023/12/26 05:13:11;;;;;;;0.55;0.45;;;;;;;10.04;100.00;97540.97;2564731;28;20064;-95
2023/12/26 05:14:27;;;;;;;0.82;0.50;;;;;;;10.11;100.00;97541.59;2573632;28;20522;-93
2023/12/26 05:15:44;;;;;;;0.90;0.45;;;;;;;10.18;100.00;97536.94;2569270;28;20097;-94
2023/12/26 05:17:00;;;;;;;0.73;0.60;;;;;;;10.28;100.00;97543.53;2573431;28;20055;-94
2023/12/26 05:18:16;;;;;;;1.20;0.80;;;;;;;10.26;100.00;97547.09;2566664;28;20043;-93
2023/12/26 05:19:32;;;;;;;0.70;0.45;;;;;;;10.18;100.00;97548.28;2571756;28;20038;-95
2023/12/26 05:20:47;;;;;;;0.60;0.60;;;;;;;10.15;100.00;97558.88;2569383;28;20043;-93
2023/12/26 05:22:03;;;;;;;1.13;0.60;;;;;;;10.00;100.00;97543.81;2565490;28;20217;-94
2023/12/26 05:23:19;;;;;;;0.65;0.65;;;;;;;9.88;100.00;97550.34;2569499;28;20034;-94
2023/12/26 05:24:35;;;;;;;2.40;0.70;;;;;;;9.98;100.00;97551.69;2564351;28;20107;-94
2023/12/26 05:25:51;;;;;;;0.77;0.77;;;;;;;9.88;100.00;97545.13;2553554;28;20027;-95
2023/12/26 05:27:08;;;;;;;2.88;0.65;;;;;;;9.89;100.00;97552.94;2572430;28;21138;-94
2023/12/26 05:28:24;;;;;;;1.08;0.80;;;;;;;9.93;100.00;97552.78;2565494;28;20051;-94
2023/12/26 05:29:43;;;;;;;1.52;0.75;;;;;;;9.92;100.00;97561.56;2551908;28;20106;-94
2023/12/26 05:31:00;;;;;;;0.80;0.60;;;;;;;9.88;100.00;97558.19;2559665;28;20043;-94
2023/12/26 05:32:16;;;;;;;1.02;0.90;;;;;;;9.97;100.00;97556.97;2565505;28;20039;-94
2023/12/26 05:33:32;;;;;;;0.68;0.65;;;;;;;9.89;100.00;97555.53;2569640;28;20050;-93
2023/12/26 05:34:49;;;;;;;1.23;0.75;;;;;;;9.94;100.00;97554.50;2574920;28;20030;-94
2023/12/26 05:36:05;;;;;;;1.77;0.50;;;;;;;10.12;100.00;97555.53;2575506;28;20050;-93
2023/12/26 05:37:22;;;;;;;0.57;0.57;;;;;;;9.91;100.00;97545.00;2568202;28;20050;-95
2023/12/26 05:38:38;;;;;;;0.70;0.50;;;;;;;9.94;100.00;97559.72;2557995;28;20043;-94
2023/12/26 05:39:54;;;;;;;0.73;0.47;;;;;;;9.98;100.00;97559.53;2558978;28;20451;-93
2023/12/26 05:41:10;;;;;;;2.60;0.88;;;;;;;9.84;100.00;97554.84;2583004;28;20107;-94
2023/12/26 05:42:26;;;;;;;1.95;0.50;;;;;;;9.87;100.00;97554.75;2591672;28;20030;-93
2023/12/26 05:43:42;;;;;;;0.70;0.63;;;;;;;9.86;100.00;97562.66;2562179;28;20047;-93
2023/12/26 05:44:58;;;;;;;0.40;0.40;;;;;;;9.84;100.00;97556.63;2562862;28;20044;-95
2023/12/26 05:46:17;;;;;;;0.95;0.80;;;;;;;9.74;100.00;97558.75;2558680;28;20048;-94
2023/12/26 05:47:33;;;;;;;0.80;0.70;;;;;;;9.84;100.00;97567.09;2574699;28;20048;-93
2023/12/26 05:48:49;;;;;;;0.90;0.50;;;;;;;10.01;100.00;97569.03;2564221;28;20102;-95
2023/12/26 05:50:06;;;;;;;1.38;0.70;;;;;;;10.08;100.00;97572.28;2563101;28;20046;-92
2023/12/26 05:51:23;;;;;;;3.80;0.88;;;;;;;9.88;100.00;97573.88;2559112;28;20610;-94
2023/12/26 05:52:39;;;;;;;1.08;0.77;;;;;;;10.20;100.00;97561.31;2573901;28;20096;-94
2023/12/26 05:53:56;;;;;;;0.43;0.40;;;;;;;10.04;100.00;97572.38;2577424;28;20091;-92
2023/12/26 05:55:12;;;;;;;0.82;0.68;;;;;;;10.03;100.00;97567.22;2588275;28;20098;-94